sensor_id;sensor_type;location;lat;lon;timestamp;P1;durP1;ratioP1;P2;durP2;ratioP2
42226;SDS011;27892;52.378;13.122;2024-02-26T00:01:31;4.03;;;3.27;;
42226;SDS011;27892;52.378;13.122;2024-02-26T00:03:58;4.53;;;3.50;;
42226;SDS011;27892;52.378;13.122;2024-02-26T00:06:24;5.00;;;3.97;;
42226;SDS011;27892;52.378;13.122;2024-02-26T00:08:50;4.17;;;3.57;;
42226;SDS011;27892;52.378;13.122;2024-02-26T00:11:16;4.53;;;3.53;;
42226;SDS011;27892;52.378;13.122;2024-02-26T00:13:41;3.80;;;3.20;;
42226;SDS011;27892;52.378;13.122;2024-02-26T00:16:07;4.10;;;3.50;;
42226;SDS011;27892;52.378;13.122;2024-02-26T00:18:33;3.40;;;3.10;;
42226;SDS011;27892;52.378;13.122;2024-02-26T00:20:59;4.43;;;3.70;;
42226;SDS011;27892;52.378;13.122;2024-02-26T00:23:25;3.43;;;3.10;;
42226;SDS011;27892;52.378;13.122;2024-02-26T00:25:52;3.60;;;2.90;;
42226;SDS011;27892;52.378;13.122;2024-02-26T00:28:18;2.87;;;2.63;;
42226;SDS011;27892;52.378;13.122;2024-02-26T00:30:45;3.90;;;3.40;;
42226;SDS011;27892;52.378;13.122;2024-02-26T00:33:11;4.40;;;3.80;;
42226;SDS011;27892;52.378;13.122;2024-02-26T00:35:36;4.50;;;3.67;;
42226;SDS011;27892;52.378;13.122;2024-02-26T00:38:02;3.87;;;3.50;;
42226;SDS011;27892;52.378;13.122;2024-02-26T00:40:29;5.13;;;3.70;;
42226;SDS011;27892;52.378;13.122;2024-02-26T00:42:55;6.53;;;4.80;;
42226;SDS011;27892;52.378;13.122;2024-02-26T00:45:21;5.63;;;4.70;;
42226;SDS011;27892;52.378;13.122;2024-02-26T00:47:47;5.10;;;4.60;;
42226;SDS011;27892;52.378;13.122;2024-02-26T00:50:14;4.20;;;3.80;;
42226;SDS011;27892;52.378;13.122;2024-02-26T00:52:40;4.27;;;3.63;;
42226;SDS011;27892;52.378;13.122;2024-02-26T00:55:06;3.70;;;3.40;;
42226;SDS011;27892;52.378;13.122;2024-02-26T00:57:32;4.10;;;3.50;;
42226;SDS011;27892;52.378;13.122;2024-02-26T00:59:58;3.40;;;3.10;;
42226;SDS011;27892;52.378;13.122;2024-02-26T01:02:24;3.97;;;3.40;;
42226;SDS011;27892;52.378;13.122;2024-02-26T01:04:50;4.10;;;3.53;;
42226;SDS011;27892;52.378;13.122;2024-02-26T01:07:16;4.23;;;3.43;;
42226;SDS011;27892;52.378;13.122;2024-02-26T01:09:42;3.50;;;3.00;;
42226;SDS011;27892;52.378;13.122;2024-02-26T01:12:07;4.13;;;3.40;;
42226;SDS011;27892;52.378;13.122;2024-02-26T01:14:33;5.60;;;4.00;;
42226;SDS011;27892;52.378;13.122;2024-02-26T01:16:59;5.03;;;3.77;;
42226;SDS011;27892;52.378;13.122;2024-02-26T01:19:25;4.93;;;3.80;;
42226;SDS011;27892;52.378;13.122;2024-02-26T01:21:51;4.27;;;3.50;;
42226;SDS011;27892;52.378;13.122;2024-02-26T01:24:16;4.23;;;3.10;;
42226;SDS011;27892;52.378;13.122;2024-02-26T01:26:42;3.13;;;2.90;;
42226;SDS011;27892;52.378;13.122;2024-02-26T01:29:08;4.03;;;3.63;;
42226;SDS011;27892;52.378;13.122;2024-02-26T01:31:34;3.50;;;3.20;;
42226;SDS011;27892;52.378;13.122;2024-02-26T01:34:00;5.33;;;3.90;;
42226;SDS011;27892;52.378;13.122;2024-02-26T01:36:26;3.80;;;3.37;;
42226;SDS011;27892;52.378;13.122;2024-02-26T01:38:52;4.20;;;3.80;;
42226;SDS011;27892;52.378;13.122;2024-02-26T01:41:17;4.27;;;3.60;;
42226;SDS011;27892;52.378;13.122;2024-02-26T01:43:43;3.50;;;3.20;;
42226;SDS011;27892;52.378;13.122;2024-02-26T01:46:10;3.50;;;3.20;;
42226;SDS011;27892;52.378;13.122;2024-02-26T01:48:42;3.87;;;3.10;;
42226;SDS011;27892;52.378;13.122;2024-02-26T01:51:09;3.73;;;3.33;;
42226;SDS011;27892;52.378;13.122;2024-02-26T01:53:37;4.00;;;3.60;;
42226;SDS011;27892;52.378;13.122;2024-02-26T01:56:03;3.97;;;3.57;;
42226;SDS011;27892;52.378;13.122;2024-02-26T01:58:29;4.10;;;3.70;;
42226;SDS011;27892;52.378;13.122;2024-02-26T02:00:56;4.27;;;3.63;;
42226;SDS011;27892;52.378;13.122;2024-02-26T02:03:23;3.80;;;3.43;;
42226;SDS011;27892;52.378;13.122;2024-02-26T02:05:50;4.53;;;3.67;;
42226;SDS011;27892;52.378;13.122;2024-02-26T02:08:15;4.30;;;3.37;;
42226;SDS011;27892;52.378;13.122;2024-02-26T02:10:41;4.43;;;3.50;;
42226;SDS011;27892;52.378;13.122;2024-02-26T02:13:07;4.03;;;3.47;;
42226;SDS011;27892;52.378;13.122;2024-02-26T02:15:33;3.70;;;3.40;;
42226;SDS011;27892;52.378;13.122;2024-02-26T02:17:59;3.43;;;3.10;;
42226;SDS011;27892;52.378;13.122;2024-02-26T02:20:25;4.93;;;3.40;;
42226;SDS011;27892;52.378;13.122;2024-02-26T02:22:56;3.60;;;3.30;;
42226;SDS011;27892;52.378;13.122;2024-02-26T02:25:22;3.70;;;3.30;;
42226;SDS011;27892;52.378;13.122;2024-02-26T02:27:48;3.67;;;3.20;;
42226;SDS011;27892;52.378;13.122;2024-02-26T02:30:13;4.07;;;3.37;;
42226;SDS011;27892;52.378;13.122;2024-02-26T02:32:41;3.20;;;2.90;;
42226;SDS011;27892;52.378;13.122;2024-02-26T02:35:07;3.23;;;2.93;;
42226;SDS011;27892;52.378;13.122;2024-02-26T02:37:33;4.03;;;3.40;;
42226;SDS011;27892;52.378;13.122;2024-02-26T02:39:58;4.97;;;3.60;;
42226;SDS011;27892;52.378;13.122;2024-02-26T02:42:25;4.70;;;3.80;;
42226;SDS011;27892;52.378;13.122;2024-02-26T02:44:51;4.60;;;3.53;;
42226;SDS011;27892;52.378;13.122;2024-02-26T02:47:16;4.37;;;3.90;;
42226;SDS011;27892;52.378;13.122;2024-02-26T02:49:42;4.73;;;3.87;;
42226;SDS011;27892;52.378;13.122;2024-02-26T02:52:08;3.97;;;3.33;;
42226;SDS011;27892;52.378;13.122;2024-02-26T02:54:33;4.70;;;3.83;;
42226;SDS011;27892;52.378;13.122;2024-02-26T02:56:59;5.23;;;4.00;;
42226;SDS011;27892;52.378;13.122;2024-02-26T02:59:25;5.23;;;3.90;;
42226;SDS011;27892;52.378;13.122;2024-02-26T03:01:50;4.80;;;4.10;;
42226;SDS011;27892;52.378;13.122;2024-02-26T03:04:17;4.07;;;3.50;;
42226;SDS011;27892;52.378;13.122;2024-02-26T03:06:42;3.80;;;3.50;;
42226;SDS011;27892;52.378;13.122;2024-02-26T03:09:08;4.97;;;4.03;;
42226;SDS011;27892;52.378;13.122;2024-02-26T03:11:34;4.20;;;3.80;;
42226;SDS011;27892;52.378;13.122;2024-02-26T03:14:00;5.73;;;4.00;;
42226;SDS011;27892;52.378;13.122;2024-02-26T03:16:26;4.30;;;3.53;;
42226;SDS011;27892;52.378;13.122;2024-02-26T03:18:51;3.77;;;3.37;;
42226;SDS011;27892;52.378;13.122;2024-02-26T03:21:17;3.70;;;3.27;;
42226;SDS011;27892;52.378;13.122;2024-02-26T03:23:43;3.57;;;3.20;;
42226;SDS011;27892;52.378;13.122;2024-02-26T03:26:09;3.60;;;3.30;;
42226;SDS011;27892;52.378;13.122;2024-02-26T03:28:38;4.33;;;3.43;;
42226;SDS011;27892;52.378;13.122;2024-02-26T03:31:04;4.87;;;4.00;;
42226;SDS011;27892;52.378;13.122;2024-02-26T03:33:30;3.93;;;3.50;;
42226;SDS011;27892;52.378;13.122;2024-02-26T03:35:55;4.63;;;3.63;;
42226;SDS011;27892;52.378;13.122;2024-02-26T03:38:21;4.03;;;3.63;;
42226;SDS011;27892;52.378;13.122;2024-02-26T03:40:47;4.77;;;3.90;;
42226;SDS011;27892;52.378;13.122;2024-02-26T03:43:13;4.10;;;3.70;;
42226;SDS011;27892;52.378;13.122;2024-02-26T03:45:39;4.03;;;3.73;;
42226;SDS011;27892;52.378;13.122;2024-02-26T03:48:04;4.70;;;4.03;;
42226;SDS011;27892;52.378;13.122;2024-02-26T03:50:30;4.00;;;3.50;;
42226;SDS011;27892;52.378;13.122;2024-02-26T03:52:57;4.10;;;3.60;;
42226;SDS011;27892;52.378;13.122;2024-02-26T03:55:23;4.47;;;3.97;;
42226;SDS011;27892;52.378;13.122;2024-02-26T03:57:50;4.07;;;3.77;;
42226;SDS011;27892;52.378;13.122;2024-02-26T04:00:17;4.40;;;4.00;;
42226;SDS011;27892;52.378;13.122;2024-02-26T04:02:43;3.63;;;3.33;;
42226;SDS011;27892;52.378;13.122;2024-02-26T04:05:11;4.30;;;3.90;;
42226;SDS011;27892;52.378;13.122;2024-02-26T04:07:39;4.23;;;3.53;;
42226;SDS011;27892;52.378;13.122;2024-02-26T04:10:12;3.93;;;3.50;;
42226;SDS011;27892;52.378;13.122;2024-02-26T04:12:41;4.17;;;3.67;;
42226;SDS011;27892;52.378;13.122;2024-02-26T04:15:08;4.67;;;3.90;;
42226;SDS011;27892;52.378;13.122;2024-02-26T04:17:34;4.10;;;3.70;;
42226;SDS011;27892;52.378;13.122;2024-02-26T04:20:00;4.23;;;3.83;;
42226;SDS011;27892;52.378;13.122;2024-02-26T04:22:25;4.60;;;3.80;;
42226;SDS011;27892;52.378;13.122;2024-02-26T04:24:51;3.63;;;3.33;;
42226;SDS011;27892;52.378;13.122;2024-02-26T04:27:17;3.57;;;3.23;;
42226;SDS011;27892;52.378;13.122;2024-02-26T04:29:42;4.47;;;3.30;;
42226;SDS011;27892;52.378;13.122;2024-02-26T04:32:08;4.47;;;3.40;;
42226;SDS011;27892;52.378;13.122;2024-02-26T04:34:34;5.20;;;4.13;;
42226;SDS011;27892;52.378;13.122;2024-02-26T04:37:00;5.50;;;4.27;;
42226;SDS011;27892;52.378;13.122;2024-02-26T04:39:25;6.43;;;4.37;;
42226;SDS011;27892;52.378;13.122;2024-02-26T04:41:51;6.57;;;4.97;;
42226;SDS011;27892;52.378;13.122;2024-02-26T04:44:17;7.73;;;5.30;;
42226;SDS011;27892;52.378;13.122;2024-02-26T04:46:42;5.33;;;4.77;;
42226;SDS011;27892;52.378;13.122;2024-02-26T04:49:08;6.00;;;4.73;;
42226;SDS011;27892;52.378;13.122;2024-02-26T04:51:34;5.73;;;4.90;;
42226;SDS011;27892;52.378;13.122;2024-02-26T04:54:00;6.40;;;5.13;;
42226;SDS011;27892;52.378;13.122;2024-02-26T04:56:25;6.30;;;5.10;;
42226;SDS011;27892;52.378;13.122;2024-02-26T04:58:51;5.03;;;4.53;;
42226;SDS011;27892;52.378;13.122;2024-02-26T05:01:17;5.00;;;4.10;;
42226;SDS011;27892;52.378;13.122;2024-02-26T05:03:43;5.80;;;4.40;;
42226;SDS011;27892;52.378;13.122;2024-02-26T05:06:09;4.80;;;4.30;;
42226;SDS011;27892;52.378;13.122;2024-02-26T05:08:35;5.33;;;4.27;;
42226;SDS011;27892;52.378;13.122;2024-02-26T05:11:02;5.20;;;4.70;;
42226;SDS011;27892;52.378;13.122;2024-02-26T05:13:28;7.07;;;5.07;;
42226;SDS011;27892;52.378;13.122;2024-02-26T05:15:54;5.97;;;4.83;;
42226;SDS011;27892;52.378;13.122;2024-02-26T05:18:20;5.30;;;4.47;;
42226;SDS011;27892;52.378;13.122;2024-02-26T05:20:47;5.03;;;4.40;;
42226;SDS011;27892;52.378;13.122;2024-02-26T05:23:12;5.27;;;4.30;;
42226;SDS011;27892;52.378;13.122;2024-02-26T05:25:38;6.37;;;4.80;;
42226;SDS011;27892;52.378;13.122;2024-02-26T05:28:04;5.87;;;4.97;;
42226;SDS011;27892;52.378;13.122;2024-02-26T05:30:30;5.53;;;4.97;;
42226;SDS011;27892;52.378;13.122;2024-02-26T05:32:55;5.77;;;4.63;;
42226;SDS011;27892;52.378;13.122;2024-02-26T05:35:21;5.83;;;4.60;;
42226;SDS011;27892;52.378;13.122;2024-02-26T05:37:46;5.57;;;4.90;;
42226;SDS011;27892;52.378;13.122;2024-02-26T05:40:12;5.70;;;4.60;;
42226;SDS011;27892;52.378;13.122;2024-02-26T05:42:38;5.17;;;4.67;;
42226;SDS011;27892;52.378;13.122;2024-02-26T05:45:04;5.23;;;4.73;;
42226;SDS011;27892;52.378;13.122;2024-02-26T05:47:34;5.63;;;4.90;;
42226;SDS011;27892;52.378;13.122;2024-02-26T05:50:00;5.33;;;4.63;;
42226;SDS011;27892;52.378;13.122;2024-02-26T05:52:26;5.17;;;4.20;;
42226;SDS011;27892;52.378;13.122;2024-02-26T05:54:54;4.53;;;3.97;;
42226;SDS011;27892;52.378;13.122;2024-02-26T05:57:20;5.73;;;4.60;;
42226;SDS011;27892;52.378;13.122;2024-02-26T05:59:45;5.23;;;4.60;;
42226;SDS011;27892;52.378;13.122;2024-02-26T06:02:11;5.33;;;4.47;;
42226;SDS011;27892;52.378;13.122;2024-02-26T06:04:37;5.60;;;4.43;;
42226;SDS011;27892;52.378;13.122;2024-02-26T06:07:02;5.00;;;4.50;;
42226;SDS011;27892;52.378;13.122;2024-02-26T06:09:28;5.53;;;4.90;;
42226;SDS011;27892;52.378;13.122;2024-02-26T06:11:54;5.90;;;5.10;;
42226;SDS011;27892;52.378;13.122;2024-02-26T06:14:19;5.20;;;4.27;;
42226;SDS011;27892;52.378;13.122;2024-02-26T06:16:45;4.37;;;3.97;;
42226;SDS011;27892;52.378;13.122;2024-02-26T06:19:11;5.17;;;4.40;;
42226;SDS011;27892;52.378;13.122;2024-02-26T06:21:37;5.57;;;4.67;;
42226;SDS011;27892;52.378;13.122;2024-02-26T06:24:03;5.77;;;5.07;;
42226;SDS011;27892;52.378;13.122;2024-02-26T06:26:29;6.37;;;4.47;;
42226;SDS011;27892;52.378;13.122;2024-02-26T06:28:55;7.27;;;5.60;;
42226;SDS011;27892;52.378;13.122;2024-02-26T06:31:23;6.43;;;5.43;;
42226;SDS011;27892;52.378;13.122;2024-02-26T06:33:49;6.47;;;5.23;;
42226;SDS011;27892;52.378;13.122;2024-02-26T06:36:15;5.60;;;5.10;;
42226;SDS011;27892;52.378;13.122;2024-02-26T06:38:41;6.87;;;5.13;;
42226;SDS011;27892;52.378;13.122;2024-02-26T06:41:07;7.50;;;6.10;;
42226;SDS011;27892;52.378;13.122;2024-02-26T06:43:32;7.20;;;5.63;;
42226;SDS011;27892;52.378;13.122;2024-02-26T06:45:58;7.93;;;6.20;;
42226;SDS011;27892;52.378;13.122;2024-02-26T06:48:24;7.07;;;5.47;;
42226;SDS011;27892;52.378;13.122;2024-02-26T06:50:50;6.03;;;5.43;;
42226;SDS011;27892;52.378;13.122;2024-02-26T06:53:18;6.43;;;5.40;;
42226;SDS011;27892;52.378;13.122;2024-02-26T06:55:44;5.87;;;5.03;;
42226;SDS011;27892;52.378;13.122;2024-02-26T06:58:10;6.77;;;5.47;;
42226;SDS011;27892;52.378;13.122;2024-02-26T07:00:36;5.80;;;5.20;;
42226;SDS011;27892;52.378;13.122;2024-02-26T07:03:01;8.80;;;6.57;;
42226;SDS011;27892;52.378;13.122;2024-02-26T07:05:27;8.93;;;7.20;;
42226;SDS011;27892;52.378;13.122;2024-02-26T07:07:53;11.57;;;7.53;;
42226;SDS011;27892;52.378;13.122;2024-02-26T07:10:19;9.10;;;6.93;;
42226;SDS011;27892;52.378;13.122;2024-02-26T07:12:44;10.20;;;7.47;;
42226;SDS011;27892;52.378;13.122;2024-02-26T07:15:10;9.77;;;7.40;;
42226;SDS011;27892;52.378;13.122;2024-02-26T07:17:36;9.33;;;7.27;;
42226;SDS011;27892;52.378;13.122;2024-02-26T07:20:02;13.03;;;8.87;;
42226;SDS011;27892;52.378;13.122;2024-02-26T07:22:31;11.33;;;8.23;;
42226;SDS011;27892;52.378;13.122;2024-02-26T07:24:56;12.33;;;8.53;;
42226;SDS011;27892;52.378;13.122;2024-02-26T07:27:23;13.80;;;9.23;;
42226;SDS011;27892;52.378;13.122;2024-02-26T07:29:48;15.13;;;9.77;;
42226;SDS011;27892;52.378;13.122;2024-02-26T07:32:14;13.27;;;9.87;;
42226;SDS011;27892;52.378;13.122;2024-02-26T07:34:40;11.97;;;8.70;;
42226;SDS011;27892;52.378;13.122;2024-02-26T07:37:10;13.03;;;9.43;;
42226;SDS011;27892;52.378;13.122;2024-02-26T07:39:36;13.43;;;9.60;;
42226;SDS011;27892;52.378;13.122;2024-02-26T07:42:02;11.73;;;9.00;;
42226;SDS011;27892;52.378;13.122;2024-02-26T07:44:28;13.03;;;9.90;;
42226;SDS011;27892;52.378;13.122;2024-02-26T07:46:54;13.93;;;10.13;;
42226;SDS011;27892;52.378;13.122;2024-02-26T07:49:19;15.07;;;10.53;;
42226;SDS011;27892;52.378;13.122;2024-02-26T07:51:45;14.83;;;10.53;;
42226;SDS011;27892;52.378;13.122;2024-02-26T07:54:11;15.90;;;12.07;;
42226;SDS011;27892;52.378;13.122;2024-02-26T07:56:36;15.03;;;10.60;;
42226;SDS011;27892;52.378;13.122;2024-02-26T07:59:02;16.17;;;11.57;;
42226;SDS011;27892;52.378;13.122;2024-02-26T08:01:28;17.60;;;12.83;;
42226;SDS011;27892;52.378;13.122;2024-02-26T08:03:54;14.83;;;11.37;;
42226;SDS011;27892;52.378;13.122;2024-02-26T08:06:20;14.77;;;10.50;;
42226;SDS011;27892;52.378;13.122;2024-02-26T08:08:46;12.47;;;9.63;;
42226;SDS011;27892;52.378;13.122;2024-02-26T08:11:14;15.30;;;10.83;;
42226;SDS011;27892;52.378;13.122;2024-02-26T08:13:43;15.20;;;10.50;;
42226;SDS011;27892;52.378;13.122;2024-02-26T08:16:08;21.10;;;14.47;;
42226;SDS011;27892;52.378;13.122;2024-02-26T08:18:34;14.93;;;11.17;;
42226;SDS011;27892;52.378;13.122;2024-02-26T08:21:00;13.97;;;9.97;;
42226;SDS011;27892;52.378;13.122;2024-02-26T08:23:25;13.23;;;10.40;;
42226;SDS011;27892;52.378;13.122;2024-02-26T08:25:51;14.60;;;10.63;;
42226;SDS011;27892;52.378;13.122;2024-02-26T08:28:17;15.10;;;10.80;;
42226;SDS011;27892;52.378;13.122;2024-02-26T08:30:42;13.77;;;10.70;;
42226;SDS011;27892;52.378;13.122;2024-02-26T08:33:08;13.40;;;9.83;;
42226;SDS011;27892;52.378;13.122;2024-02-26T08:35:35;11.20;;;9.00;;
42226;SDS011;27892;52.378;13.122;2024-02-26T08:38:01;10.17;;;8.33;;
42226;SDS011;27892;52.378;13.122;2024-02-26T08:40:26;12.00;;;9.23;;
42226;SDS011;27892;52.378;13.122;2024-02-26T08:42:52;11.47;;;9.33;;
42226;SDS011;27892;52.378;13.122;2024-02-26T08:45:18;9.73;;;8.60;;
42226;SDS011;27892;52.378;13.122;2024-02-26T08:47:47;11.13;;;8.43;;
42226;SDS011;27892;52.378;13.122;2024-02-26T08:50:13;11.20;;;8.30;;
42226;SDS011;27892;52.378;13.122;2024-02-26T08:52:39;9.30;;;7.43;;
42226;SDS011;27892;52.378;13.122;2024-02-26T08:55:05;8.77;;;7.72;;
42226;SDS011;27892;52.378;13.122;2024-02-26T08:57:33;9.70;;;8.18;;
42226;SDS011;27892;52.378;13.122;2024-02-26T09:00:00;9.98;;;7.60;;
42226;SDS011;27892;52.378;13.122;2024-02-26T09:02:26;9.90;;;8.03;;
42226;SDS011;27892;52.378;13.122;2024-02-26T09:04:52;8.40;;;7.33;;
42226;SDS011;27892;52.378;13.122;2024-02-26T09:07:20;10.10;;;8.17;;
42226;SDS011;27892;52.378;13.122;2024-02-26T09:09:46;12.83;;;9.70;;
42226;SDS011;27892;52.378;13.122;2024-02-26T09:12:11;11.20;;;9.20;;
42226;SDS011;27892;52.378;13.122;2024-02-26T09:14:37;10.43;;;8.67;;
42226;SDS011;27892;52.378;13.122;2024-02-26T09:17:03;8.13;;;6.30;;
42226;SDS011;27892;52.378;13.122;2024-02-26T09:19:28;12.13;;;9.57;;
42226;SDS011;27892;52.378;13.122;2024-02-26T09:21:54;12.13;;;9.13;;
42226;SDS011;27892;52.378;13.122;2024-02-26T09:24:22;13.27;;;9.20;;
42226;SDS011;27892;52.378;13.122;2024-02-26T09:26:49;7.73;;;6.90;;
42226;SDS011;27892;52.378;13.122;2024-02-26T09:29:14;15.57;;;11.13;;
42226;SDS011;27892;52.378;13.122;2024-02-26T09:31:40;12.70;;;9.57;;
42226;SDS011;27892;52.378;13.122;2024-02-26T09:34:06;13.27;;;9.80;;
42226;SDS011;27892;52.378;13.122;2024-02-26T09:36:33;24.57;;;16.40;;
42226;SDS011;27892;52.378;13.122;2024-02-26T09:38:59;18.90;;;13.53;;
42226;SDS011;27892;52.378;13.122;2024-02-26T09:41:25;12.97;;;9.93;;
42226;SDS011;27892;52.378;13.122;2024-02-26T09:43:56;13.43;;;10.33;;
42226;SDS011;27892;52.378;13.122;2024-02-26T09:46:25;12.00;;;9.10;;
42226;SDS011;27892;52.378;13.122;2024-02-26T09:48:51;12.83;;;10.33;;
42226;SDS011;27892;52.378;13.122;2024-02-26T09:51:17;11.47;;;8.40;;
42226;SDS011;27892;52.378;13.122;2024-02-26T09:53:44;12.90;;;9.40;;
42226;SDS011;27892;52.378;13.122;2024-02-26T09:56:14;12.93;;;8.73;;
42226;SDS011;27892;52.378;13.122;2024-02-26T09:58:40;13.77;;;9.40;;
42226;SDS011;27892;52.378;13.122;2024-02-26T10:01:10;9.23;;;7.10;;
42226;SDS011;27892;52.378;13.122;2024-02-26T10:03:38;9.83;;;7.60;;
42226;SDS011;27892;52.378;13.122;2024-02-26T10:06:07;10.10;;;8.20;;
42226;SDS011;27892;52.378;13.122;2024-02-26T10:08:34;12.43;;;8.93;;
42226;SDS011;27892;52.378;13.122;2024-02-26T10:11:02;9.67;;;6.83;;
42226;SDS011;27892;52.378;13.122;2024-02-26T10:13:28;11.03;;;8.70;;
42226;SDS011;27892;52.378;13.122;2024-02-26T10:15:54;9.87;;;7.67;;
42226;SDS011;27892;52.378;13.122;2024-02-26T10:18:19;7.30;;;6.43;;
42226;SDS011;27892;52.378;13.122;2024-02-26T10:20:58;9.80;;;6.97;;
42226;SDS011;27892;52.378;13.122;2024-02-26T10:23:26;9.80;;;6.97;;
42226;SDS011;27892;52.378;13.122;2024-02-26T10:25:55;13.93;;;8.97;;
42226;SDS011;27892;52.378;13.122;2024-02-26T10:28:20;9.80;;;7.50;;
42226;SDS011;27892;52.378;13.122;2024-02-26T10:30:47;10.67;;;8.03;;
42226;SDS011;27892;52.378;13.122;2024-02-26T10:33:12;8.80;;;6.57;;
42226;SDS011;27892;52.378;13.122;2024-02-26T10:35:39;7.10;;;5.50;;
42226;SDS011;27892;52.378;13.122;2024-02-26T10:38:10;8.07;;;6.47;;
42226;SDS011;27892;52.378;13.122;2024-02-26T10:40:36;8.30;;;6.50;;
42226;SDS011;27892;52.378;13.122;2024-02-26T10:43:02;11.60;;;7.67;;
42226;SDS011;27892;52.378;13.122;2024-02-26T10:45:28;9.57;;;7.00;;
42226;SDS011;27892;52.378;13.122;2024-02-26T10:47:53;9.77;;;7.07;;
42226;SDS011;27892;52.378;13.122;2024-02-26T10:50:19;7.37;;;5.80;;
42226;SDS011;27892;52.378;13.122;2024-02-26T10:52:45;7.40;;;5.47;;
42226;SDS011;27892;52.378;13.122;2024-02-26T10:55:20;8.07;;;5.77;;
42226;SDS011;27892;52.378;13.122;2024-02-26T10:57:48;17.47;;;10.83;;
42226;SDS011;27892;52.378;13.122;2024-02-26T11:00:18;14.30;;;10.07;;
42226;SDS011;27892;52.378;13.122;2024-02-26T11:02:44;9.10;;;6.87;;
42226;SDS011;27892;52.378;13.122;2024-02-26T11:05:13;9.93;;;6.33;;
42226;SDS011;27892;52.378;13.122;2024-02-26T11:07:40;7.65;;;6.05;;
42226;SDS011;27892;52.378;13.122;2024-02-26T11:10:07;6.47;;;5.35;;
42226;SDS011;27892;52.378;13.122;2024-02-26T11:12:34;8.50;;;6.07;;
42226;SDS011;27892;52.378;13.122;2024-02-26T11:15:02;7.82;;;5.85;;
42226;SDS011;27892;52.378;13.122;2024-02-26T11:17:29;6.50;;;4.90;;
42226;SDS011;27892;52.378;13.122;2024-02-26T11:19:58;4.47;;;4.07;;
42226;SDS011;27892;52.378;13.122;2024-02-26T11:22:27;6.10;;;5.37;;
42226;SDS011;27892;52.378;13.122;2024-02-26T11:24:54;6.40;;;5.10;;
42226;SDS011;27892;52.378;13.122;2024-02-26T11:27:23;5.57;;;4.43;;
42226;SDS011;27892;52.378;13.122;2024-02-26T11:29:52;7.97;;;5.70;;
42226;SDS011;27892;52.378;13.122;2024-02-26T11:32:19;6.67;;;5.20;;
42226;SDS011;27892;52.378;13.122;2024-02-26T11:34:46;5.10;;;4.27;;
42226;SDS011;27892;52.378;13.122;2024-02-26T11:37:14;5.10;;;4.30;;
42226;SDS011;27892;52.378;13.122;2024-02-26T11:39:41;7.20;;;5.50;;
42226;SDS011;27892;52.378;13.122;2024-02-26T11:42:08;6.53;;;5.20;;
42226;SDS011;27892;52.378;13.122;2024-02-26T11:44:34;6.00;;;4.40;;
42226;SDS011;27892;52.378;13.122;2024-02-26T11:47:13;5.87;;;4.93;;
42226;SDS011;27892;52.378;13.122;2024-02-26T11:49:42;6.33;;;5.10;;
42226;SDS011;27892;52.378;13.122;2024-02-26T11:52:08;4.80;;;4.20;;
42226;SDS011;27892;52.378;13.122;2024-02-26T11:54:53;6.80;;;4.73;;
42226;SDS011;27892;52.378;13.122;2024-02-26T11:59:51;6.07;;;4.53;;
42226;SDS011;27892;52.378;13.122;2024-02-26T12:05:07;4.13;;;3.70;;
42226;SDS011;27892;52.378;13.122;2024-02-26T12:07:34;5.30;;;4.35;;
42226;SDS011;27892;52.378;13.122;2024-02-26T12:15:46;5.25;;;3.75;;
42226;SDS011;27892;52.378;13.122;2024-02-26T12:18:21;4.32;;;3.92;;
42226;SDS011;27892;52.378;13.122;2024-02-26T12:21:00;3.88;;;3.47;;
42226;SDS011;27892;52.378;13.122;2024-02-26T12:23:27;4.57;;;3.70;;
42226;SDS011;27892;52.378;13.122;2024-02-26T12:26:02;3.53;;;3.22;;
42226;SDS011;27892;52.378;13.122;2024-02-26T12:28:31;4.82;;;3.97;;
42226;SDS011;27892;52.378;13.122;2024-02-26T12:30:56;4.35;;;3.95;;
42226;SDS011;27892;52.378;13.122;2024-02-26T12:33:24;7.68;;;5.18;;
42226;SDS011;27892;52.378;13.122;2024-02-26T12:35:51;6.28;;;4.55;;
42226;SDS011;27892;52.378;13.122;2024-02-26T12:38:18;6.18;;;3.88;;
42226;SDS011;27892;52.378;13.122;2024-02-26T12:40:44;4.43;;;3.67;;
42226;SDS011;27892;52.378;13.122;2024-02-26T12:43:10;5.55;;;4.55;;
42226;SDS011;27892;52.378;13.122;2024-02-26T12:45:41;5.93;;;4.50;;
42226;SDS011;27892;52.378;13.122;2024-02-26T12:48:09;4.35;;;3.90;;
42226;SDS011;27892;52.378;13.122;2024-02-26T12:50:34;4.55;;;3.20;;
42226;SDS011;27892;52.378;13.122;2024-02-26T12:53:00;22.48;;;14.13;;
42226;SDS011;27892;52.378;13.122;2024-02-26T12:55:26;9.75;;;7.63;;
42226;SDS011;27892;52.378;13.122;2024-02-26T12:57:52;5.47;;;4.18;;
42226;SDS011;27892;52.378;13.122;2024-02-26T13:00:22;4.27;;;3.70;;
42226;SDS011;27892;52.378;13.122;2024-02-26T13:02:50;4.67;;;3.87;;
42226;SDS011;27892;52.378;13.122;2024-02-26T13:05:17;3.50;;;3.20;;
42226;SDS011;27892;52.378;13.122;2024-02-26T13:07:44;3.30;;;3.00;;
42226;SDS011;27892;52.378;13.122;2024-02-26T13:10:13;3.80;;;3.10;;
42226;SDS011;27892;52.378;13.122;2024-02-26T13:12:46;3.53;;;3.00;;
42226;SDS011;27892;52.378;13.122;2024-02-26T13:15:20;4.10;;;3.07;;
42226;SDS011;27892;52.378;13.122;2024-02-26T13:17:46;4.47;;;2.93;;
42226;SDS011;27892;52.378;13.122;2024-02-26T13:20:13;2.87;;;2.60;;
42226;SDS011;27892;52.378;13.122;2024-02-26T13:22:50;4.67;;;2.93;;
42226;SDS011;27892;52.378;13.122;2024-02-26T13:25:20;3.33;;;2.73;;
42226;SDS011;27892;52.378;13.122;2024-02-26T13:27:46;3.80;;;3.10;;
42226;SDS011;27892;52.378;13.122;2024-02-26T13:30:11;3.03;;;2.77;;
42226;SDS011;27892;52.378;13.122;2024-02-26T13:32:39;3.73;;;3.00;;
42226;SDS011;27892;52.378;13.122;2024-02-26T13:35:06;4.07;;;2.97;;
42226;SDS011;27892;52.378;13.122;2024-02-26T13:37:34;2.30;;;2.10;;
42226;SDS011;27892;52.378;13.122;2024-02-26T13:40:00;2.50;;;2.20;;
42226;SDS011;27892;52.378;13.122;2024-02-26T13:42:30;2.80;;;2.60;;
42226;SDS011;27892;52.378;13.122;2024-02-26T13:44:56;4.33;;;3.70;;
42226;SDS011;27892;52.378;13.122;2024-02-26T13:47:21;4.93;;;3.93;;
42226;SDS011;27892;52.378;13.122;2024-02-26T13:49:47;5.73;;;4.30;;
42226;SDS011;27892;52.378;13.122;2024-02-26T13:52:13;5.07;;;4.00;;
42226;SDS011;27892;52.378;13.122;2024-02-26T13:54:39;5.30;;;4.10;;
42226;SDS011;27892;52.378;13.122;2024-02-26T13:57:05;5.67;;;4.30;;
42226;SDS011;27892;52.378;13.122;2024-02-26T13:59:31;4.50;;;3.90;;
42226;SDS011;27892;52.378;13.122;2024-02-26T14:01:57;7.33;;;4.70;;
42226;SDS011;27892;52.378;13.122;2024-02-26T14:04:23;6.87;;;4.60;;
42226;SDS011;27892;52.378;13.122;2024-02-26T14:06:48;4.13;;;3.60;;
42226;SDS011;27892;52.378;13.122;2024-02-26T14:09:14;5.57;;;4.33;;
42226;SDS011;27892;52.378;13.122;2024-02-26T14:11:46;4.47;;;3.50;;
42226;SDS011;27892;52.378;13.122;2024-02-26T14:14:11;3.20;;;2.90;;
42226;SDS011;27892;52.378;13.122;2024-02-26T14:16:37;4.20;;;3.47;;
42226;SDS011;27892;52.378;13.122;2024-02-26T14:19:03;3.57;;;3.23;;
42226;SDS011;27892;52.378;13.122;2024-02-26T14:21:29;3.03;;;2.73;;
42226;SDS011;27892;52.378;13.122;2024-02-26T14:23:55;4.50;;;3.97;;
42226;SDS011;27892;52.378;13.122;2024-02-26T14:26:24;6.13;;;4.23;;
42226;SDS011;27892;52.378;13.122;2024-02-26T14:28:50;3.63;;;3.33;;
42226;SDS011;27892;52.378;13.122;2024-02-26T14:31:19;4.50;;;3.27;;
42226;SDS011;27892;52.378;13.122;2024-02-26T14:33:44;2.77;;;2.50;;
42226;SDS011;27892;52.378;13.122;2024-02-26T14:36:11;2.73;;;2.53;;
42226;SDS011;27892;52.378;13.122;2024-02-26T14:38:37;3.33;;;2.70;;